Time;durP1;ratioP1;P1;durP2;ratioP2;P2;SDS_P1;SDS_P2;PMS_P1;PMS_P2;Temp;Humidity;BMP_temperature;BMP_pressure;BME280_temperature;BME280_humidity;BME280_pressure;Samples;Min_cycle;Max_cycle;Signal;HPM_P1;HPM_P2
2022/06/25 00:01:58;;;;;;;2.05;0.93;;;;;;;14.93;100.00;99444.89;1736513;80;21622;-54
2022/06/25 00:07:10;;;;;;;8.35;1.10;;;;;;;14.87;100.00;99446.20;1737667;80;21046;-54
2022/06/25 00:09:36;;;;;;;3.12;0.90;;;;;;;14.82;100.00;99450.19;1739506;80;21053;-55
2022/06/25 00:14:49;;;;;;;1.15;0.90;;;;;;;14.78;100.00;99451.39;1736124;80;21660;-53
2022/06/25 00:17:15;;;;;;;3.55;1.15;;;;;;;14.65;100.00;99450.88;1736825;80;21093;-53
2022/06/25 00:19:42;;;;;;;3.05;0.90;;;;;;;14.65;100.00;99450.88;1735397;80;21133;-54
2022/06/25 00:22:08;;;;;;;2.45;1.00;;;;;;;14.58;100.00;99449.58;1736087;80;21646;-54
2022/06/25 00:24:35;;;;;;;5.30;0.90;;;;;;;14.54;100.00;99447.20;1734726;80;22069;-54
2022/06/25 00:27:01;;;;;;;2.15;1.02;;;;;;;14.53;100.00;99444.98;1740688;80;21117;-54
2022/06/25 00:29:28;;;;;;;3.17;1.10;;;;;;;14.54;100.00;99445.85;1743944;80;20894;-54
2022/06/25 00:31:55;;;;;;;4.58;1.10;;;;;;;14.56;100.00;99449.30;1743930;80;20977;-54
2022/06/25 00:34:21;;;;;;;2.27;1.35;;;;;;;14.52;100.00;99460.85;1746455;80;20966;-54
2022/06/25 00:36:47;;;;;;;2.00;1.00;;;;;;;14.48;100.00;99455.25;1743754;80;21401;-54
2022/06/25 00:39:14;;;;;;;6.95;1.00;;;;;;;14.47;100.00;99454.86;1746403;80;20902;-54
2022/06/25 00:41:40;;;;;;;1.20;1.10;;;;;;;14.46;100.00;99453.64;1745055;80;21002;-54
2022/06/25 00:44:08;;;;;;;2.83;1.30;;;;;;;14.42;100.00;99450.75;1742290;80;21329;-54
2022/06/25 00:46:34;;;;;;;2.58;1.75;;;;;;;14.36;100.00;99444.77;1744664;80;20977;-54
2022/06/25 00:49:01;;;;;;;2.55;0.90;;;;;;;14.34;100.00;99452.59;1746145;80;21709;-54
2022/06/25 00:51:28;;;;;;;3.12;0.93;;;;;;;14.34;100.00;99452.59;1745742;80;20910;-54
2022/06/25 00:53:55;;;;;;;1.80;1.12;;;;;;;14.32;100.00;99452.70;1742914;80;20933;-54
2022/06/25 00:56:22;;;;;;;2.75;0.90;;;;;;;14.33;100.00;99457.14;1741614;80;20878;-54
2022/06/25 00:58:50;;;;;;;1.70;0.90;;;;;;;14.35;100.00;99455.20;1747629;80;20864;-54
2022/06/25 01:01:16;;;;;;;3.83;1.25;;;;;;;14.36;100.00;99462.36;1747028;80;21337;-54
2022/06/25 01:03:43;;;;;;;2.08;1.00;;;;;;;14.32;100.00;99461.30;1742137;80;20911;-54
2022/06/25 01:06:09;;;;;;;3.35;1.02;;;;;;;14.27;100.00;99465.69;1743596;80;20954;-54
2022/06/25 01:08:36;;;;;;;1.60;0.90;;;;;;;14.23;100.00;99462.80;1745485;80;20970;-53
2022/06/25 01:11:02;;;;;;;4.92;1.05;;;;;;;14.22;100.00;99460.19;1741190;80;21104;-53
2022/06/25 01:13:29;;;;;;;0.82;0.80;;;;;;;14.20;100.00;99457.61;1744938;80;21511;-53
2022/06/25 01:15:56;;;;;;;1.25;0.90;;;;;;;14.21;100.00;99455.25;1741788;80;21081;-54
2022/06/25 01:18:23;;;;;;;1.35;0.90;;;;;;;14.24;100.00;99454.19;1743884;80;21085;-55
2022/06/25 01:20:49;;;;;;;2.33;1.00;;;;;;;14.22;100.00;99458.34;1742242;80;22015;-51
2022/06/25 01:23:15;;;;;;;1.30;1.00;;;;;;;14.18;100.00;99455.48;1743079;80;21346;-52
2022/06/25 01:25:44;;;;;;;1.10;1.00;;;;;;;14.14;100.00;99463.41;1744494;80;22388;-50
2022/06/25 01:28:11;;;;;;;2.30;0.98;;;;;;;14.14;100.00;99463.41;1741636;80;21045;-50
2022/06/25 01:30:37;;;;;;;1.47;0.80;;;;;;;14.09;100.00;99462.00;1747401;80;21574;-50
2022/06/25 01:33:08;;;;;;;2.40;0.90;;;;;;;14.04;100.00;99462.28;1740689;80;21117;-51
2022/06/25 01:35:36;;;;;;;4.70;1.30;;;;;;;14.03;100.00;99463.77;1740745;80;21056;-54
2022/06/25 01:38:02;;;;;;;1.25;0.78;;;;;;;13.98;100.00;99467.64;1736884;80;21204;-52
2022/06/25 01:40:32;;;;;;;1.42;0.90;;;;;;;13.94;100.00;99470.66;1739440;80;21457;-53
2022/06/25 01:42:58;;;;;;;4.47;0.88;;;;;;;13.91;100.00;99467.66;1743859;80;21100;-52
2022/06/25 01:45:37;;;;;;;6.05;0.90;;;;;;;13.96;100.00;99472.27;1743974;80;21069;-54
2022/06/25 01:48:05;;;;;;;3.47;1.20;;;;;;;13.96;100.00;99472.27;1741946;80;22385;-54
2022/06/25 01:50:33;;;;;;;3.95;1.12;;;;;;;13.98;100.00;99474.88;1742477;80;21528;-54
2022/06/25 01:53:00;;;;;;;2.50;1.00;;;;;;;13.93;100.00;99475.69;1742525;80;21459;-54
2022/06/25 01:55:26;;;;;;;2.83;1.10;;;;;;;13.90;100.00;99477.23;1743348;80;21041;-54
2022/06/25 01:57:53;;;;;;;3.72;0.90;;;;;;;13.88;100.00;99473.27;1739694;80;21581;-54
2022/06/25 02:00:24;;;;;;;0.98;0.88;;;;;;;13.89;100.00;99482.25;1740029;80;21052;-54
2022/06/25 02:02:53;;;;;;;1.42;0.78;;;;;;;13.89;100.00;99477.72;1746446;80;21840;-54
2022/06/25 02:05:56;;;;;;;1.47;0.70;;;;;;;13.93;100.00;99475.69;1741266;80;21103;-54
2022/06/25 02:07:51;;;;;;;2.67;0.90;;;;;;;13.93;100.00;99469.80;1711939;80;21135;-54
2022/06/25 02:10:18;;;;;;;1.70;1.17;;;;;;;13.92;100.00;99472.59;1744299;80;21030;-54
2022/06/25 02:12:44;;;;;;;2.95;1.10;;;;;;;13.93;100.00;99477.04;1741949;80;21460;-53
2022/06/25 02:15:11;;;;;;;2.02;1.10;;;;;;;13.93;100.00;99472.98;1744445;80;22417;-54
2022/06/25 02:17:37;;;;;;;1.02;0.93;;;;;;;13.94;100.00;99470.18;1741132;80;21072;-53
2022/06/25 02:20:05;;;;;;;2.72;1.00;;;;;;;13.94;100.00;99474.72;1742885;80;21022;-53
2022/06/25 02:22:32;;;;;;;4.83;0.90;;;;;;;13.90;100.00;99474.52;1740592;80;21354;-53
2022/06/25 02:24:59;;;;;;;0.80;0.80;;;;;;;13.83;100.00;99471.36;1744313;80;21041;-53
2022/06/25 02:27:25;;;;;;;1.37;0.80;;;;;;;13.78;100.00;99470.78;1744134;80;21382;-54
2022/06/25 02:29:52;;;;;;;1.65;0.88;;;;;;;13.73;100.00;99471.58;1734577;80;21681;-53
2022/06/25 02:32:18;;;;;;;1.70;0.90;;;;;;;13.73;100.00;99467.52;1735746;80;21092;-54
2022/06/25 02:34:45;;;;;;;4.28;1.55;;;;;;;13.74;100.00;99465.69;1732348;80;21280;-53
2022/06/25 02:37:13;;;;;;;1.50;1.37;;;;;;;13.78;100.00;99468.59;1739482;80;21519;-54
2022/06/25 02:39:39;;;;;;;1.12;0.90;;;;;;;13.80;100.00;99469.33;1738627;80;21660;-54
2022/06/25 02:42:06;;;;;;;2.27;0.90;;;;;;;13.81;100.00;99476.00;1739753;80;21061;-53
2022/06/25 02:44:33;;;;;;;2.85;0.90;;;;;;;13.83;100.00;99469.14;1735178;80;21049;-53
2022/06/25 02:47:01;;;;;;;2.85;0.98;;;;;;;13.85;100.00;99472.63;1736437;80;21081;-53
2022/06/25 02:49:29;;;;;;;4.40;0.85;;;;;;;13.85;100.00;99478.03;1730336;80;21081;-53
2022/06/25 02:51:56;;;;;;;1.25;0.78;;;;;;;13.87;100.00;99481.48;1735258;80;21145;-53
2022/06/25 02:54:23;;;;;;;1.17;0.90;;;;;;;13.91;100.00;99478.48;1733835;80;21085;-54
2022/06/25 02:59:43;;;;;;;6.03;1.25;;;;;;;14.02;100.00;99483.20;1718045;80;21668;-53
2022/06/25 03:02:09;;;;;;;1.92;0.72;;;;;;;14.08;100.00;99491.38;1736600;80;21477;-53
2022/06/25 03:04:37;;;;;;;2.85;0.78;;;;;;;14.13;100.00;99482.45;1732213;80;21010;-53
2022/06/25 03:07:05;;;;;;;1.02;0.78;;;;;;;14.18;100.00;99483.91;1735139;80;21462;-53
2022/06/25 03:09:33;;;;;;;6.85;0.85;;;;;;;14.28;100.00;99485.52;1746153;80;21045;-54
2022/06/25 03:11:59;;;;;;;1.27;0.90;;;;;;;14.36;100.00;99484.02;1735743;80;21100;-53
2022/06/25 03:14:27;;;;;;;1.47;0.90;;;;;;;14.46;100.00;99488.84;1735021;80;21029;-53
2022/06/25 03:16:54;;;;;;;1.30;0.90;;;;;;;14.50;100.00;99484.45;1736573;80;21969;-53
2022/06/25 03:19:21;;;;;;;5.70;0.93;;;;;;;14.58;100.00;99487.98;1736638;80;21064;-53
2022/06/25 03:21:49;;;;;;;1.07;0.80;;;;;;;14.58;100.00;99487.98;1736551;80;22104;-54
2022/06/25 03:24:17;;;;;;;1.10;0.80;;;;;;;14.62;100.00;99485.47;1735987;80;21566;-54
2022/06/25 03:26:44;;;;;;;1.35;0.65;;;;;;;14.69;100.00;99480.87;1734962;80;21556;-53
2022/06/25 03:29:11;;;;;;;3.55;0.80;;;;;;;14.76;100.00;99485.37;1742381;80;21134;-53
2022/06/25 03:31:38;;;;;;;1.00;0.80;;;;;;;14.83;100.00;99489.38;1736798;80;21002;-53
2022/06/25 03:34:07;;;;;;;0.90;0.80;;;;;;;14.90;100.00;99482.55;1733481;80;21121;-53
2022/06/25 03:36:50;;;;;;;0.85;0.72;;;;;;;15.00;100.00;99486.84;1741133;80;21042;-53
2022/06/25 03:39:17;;;;;;;2.40;0.70;;;;;;;15.11;100.00;99486.47;1709704;80;21025;-53
2022/06/25 03:41:43;;;;;;;2.30;0.75;;;;;;;15.20;100.00;99486.30;1740300;80;21357;-53
2022/06/25 03:44:12;;;;;;;1.77;0.90;;;;;;;15.30;100.00;99483.32;1736606;80;20923;-54
2022/06/25 03:46:39;;;;;;;1.00;0.80;;;;;;;15.40;100.00;99487.08;1742089;80;22122;-53
2022/06/25 03:49:06;;;;;;;0.80;0.80;;;;;;;15.52;100.00;99494.83;1738472;80;21314;-53
2022/06/25 03:51:34;;;;;;;4.12;0.80;;;;;;;15.62;100.00;99489.16;1726284;80;21019;-53
2022/06/25 03:54:01;;;;;;;2.90;0.80;;;;;;;15.74;100.00;99494.16;1736795;80;21829;-54
2022/06/25 03:56:28;;;;;;;1.30;0.60;;;;;;;15.85;100.00;99495.11;1735093;80;21033;-53
2022/06/25 03:58:55;;;;;;;0.80;0.70;;;;;;;15.98;100.00;99496.44;1734957;80;21065;-53
2022/06/25 04:01:23;;;;;;;1.15;0.70;;;;;;;16.14;100.00;99493.44;1739189;80;21062;-53
2022/06/25 04:03:51;;;;;;;1.57;0.70;;;;;;;16.28;100.00;99494.12;1748360;80;20974;-53
2022/06/25 04:06:18;;;;;;;2.40;0.70;;;;;;;16.49;100.00;99492.99;1739028;80;21357;-53
2022/06/25 04:08:46;;;;;;;0.60;0.60;;;;;;;16.69;100.00;99494.19;1741367;80;20894;-53
2022/06/25 04:11:14;;;;;;;3.67;0.72;;;;;;;16.85;100.00;99500.66;1739208;80;20942;-53
2022/06/25 04:13:43;;;;;;;0.85;0.70;;;;;;;16.99;100.00;99501.33;1733255;80;21056;-54
2022/06/25 04:16:10;;;;;;;1.10;0.75;;;;;;;17.11;100.00;99502.20;1738528;80;21054;-53
2022/06/25 04:18:38;;;;;;;1.07;0.70;;;;;;;17.22;100.00;99499.50;1736923;80;21846;-53
2022/06/25 04:21:05;;;;;;;2.35;0.60;;;;;;;17.38;100.00;99505.95;1735669;80;21041;-53
2022/06/25 04:23:31;;;;;;;2.60;0.80;;;;;;;17.54;100.00;99502.85;1737137;80;21049;-53
2022/06/25 04:25:58;;;;;;;2.40;0.70;;;;;;;17.69;100.00;99507.11;1733333;80;21529;-54
2022/06/25 04:31:18;;;;;;;1.17;0.70;;;;;;;17.99;100.00;99511.39;1730010;80;21147;-54
2022/06/25 04:33:45;;;;;;;3.15;0.70;;;;;;;18.22;100.00;99514.05;1734312;80;21089;-54
2022/06/25 04:36:11;;;;;;;1.92;0.60;;;;;;;18.36;100.00;99513.30;1734105;80;21600;-54
2022/06/25 04:38:46;;;;;;;2.35;0.75;;;;;;;18.48;100.00;99516.82;1734479;80;21422;-54
2022/06/25 04:41:13;;;;;;;2.47;0.70;;;;;;;18.58;100.00;99514.22;1736955;80;21686;-54
2022/06/25 04:43:39;;;;;;;3.83;0.50;;;;;;;18.71;100.00;99523.97;1729455;80;22336;-54
2022/06/25 04:46:07;;;;;;;0.60;0.50;;;;;;;18.86;100.00;99524.52;1735634;81;21736;-55
2022/06/25 04:48:36;;;;;;;0.78;0.53;;;;;;;19.00;100.00;99517.85;1735025;80;21065;-56
2022/06/25 04:51:04;;;;;;;0.55;0.55;;;;;;;19.11;100.00;99515.94;1730068;80;21123;-55
2022/06/25 04:53:30;;;;;;;2.00;0.60;;;;;;;19.22;100.00;99523.19;1728744;80;21040;-54
2022/06/25 04:55:59;;;;;;;0.88;0.60;;;;;;;19.33;100.00;99519.00;1733129;80;21309;-55
2022/06/25 04:58:25;;;;;;;1.42;0.95;;;;;;;19.44;100.00;99523.52;1735990;80;21050;-56
2022/06/25 05:01:10;;;;;;;2.65;0.60;;;;;;;19.52;100.00;99523.23;1732235;80;21267;-55
2022/06/25 05:03:37;;;;;;;0.78;0.60;;;;;;;19.62;100.00;99529.62;1728046;80;21109;-54
2022/06/25 05:06:09;;;;;;;1.20;0.60;;;;;;;19.72;100.00;99528.80;1743119;80;21018;-54
2022/06/25 05:08:36;;;;;;;2.20;0.62;;;;;;;19.81;100.00;99526.61;1737849;80;21536;-55
2022/06/25 05:11:02;;;;;;;0.72;0.70;;;;;;;19.89;100.00;99530.38;1740372;80;21049;-54
2022/06/25 05:13:30;;;;;;;1.35;0.68;;;;;;;20.00;100.00;99533.48;1736752;80;21085;-56
2022/06/25 05:15:56;;;;;;;0.70;0.60;;;;;;;20.09;100.00;99533.16;1733006;80;21025;-55
2022/06/25 05:18:23;;;;;;;2.35;0.65;;;;;;;20.17;100.00;99532.81;1737675;80;21064;-56
2022/06/25 05:20:50;;;;;;;2.72;0.60;;;;;;;20.27;100.00;99534.21;1734394;80;21440;-56
2022/06/25 05:23:17;;;;;;;1.98;0.70;;;;;;;20.34;100.00;99536.77;1737395;80;21096;-55
2022/06/25 05:25:45;;;;;;;1.77;0.50;;;;;;;20.42;100.00;99538.80;1728763;81;21085;-54
2022/06/25 05:28:13;;;;;;;0.70;0.62;;;;;;;20.51;100.00;99531.11;1739848;80;21064;-54
2022/06/25 05:30:41;;;;;;;4.47;0.60;;;;;;;20.59;100.00;99540.84;1737397;80;21100;-55
2022/06/25 05:33:09;;;;;;;0.50;0.50;;;;;;;20.66;100.00;99538.78;1735595;80;21227;-55
2022/06/25 05:35:36;;;;;;;0.60;0.60;;;;;;;20.75;100.00;99537.06;1732566;80;21092;-54
2022/06/25 05:38:02;;;;;;;1.12;0.60;;;;;;;20.82;100.00;99531.38;1732272;80;21041;-54
2022/06/25 05:40:29;;;;;;;2.15;0.50;;;;;;;20.90;100.00;99541.59;1733808;80;21136;-55
2022/06/25 05:42:55;;;;;;;3.37;0.72;;;;;;;20.96;100.00;99539.13;1733107;80;21060;-54
2022/06/25 05:45:22;;;;;;;0.70;0.68;;;;;;;21.04;100.00;99542.00;1742476;80;21204;-54
2022/06/25 05:47:48;;;;;;;1.27;0.60;;;;;;;21.10;100.00;99542.78;1737261;80;21390;-54
2022/06/25 05:50:15;;;;;;;0.50;0.50;;;;;;;21.18;100.00;99544.81;1733478;80;21056;-54
2022/06/25 05:52:41;;;;;;;0.53;0.50;;;;;;;21.27;100.00;99541.20;1734250;80;21132;-54
2022/06/25 05:55:08;;;;;;;0.60;0.50;;;;;;;21.34;100.00;99542.37;1739407;80;21085;-54
2022/06/25 05:57:35;;;;;;;3.37;0.65;;;;;;;21.42;100.00;99543.86;1733787;80;22137;-54
2022/06/25 06:00:03;;;;;;;3.83;0.93;;;;;;;21.49;100.00;99547.73;1736382;80;21510;-55
2022/06/25 06:02:32;;;;;;;2.47;0.50;;;;;;;21.57;100.00;99550.23;1740192;80;20862;-55
2022/06/25 06:04:58;;;;;;;0.57;0.57;;;;;;;21.65;100.00;99544.36;1735560;80;21318;-53
2022/06/25 06:07:25;;;;;;;0.60;0.50;;;;;;;21.72;100.00;99559.19;1742099;80;20874;-54
2022/06/25 06:09:52;;;;;;;2.17;0.60;;;;;;;21.76;100.00;99555.15;1738069;80;20859;-54
2022/06/25 06:12:18;;;;;;;3.58;0.70;;;;;;;21.81;100.00;99558.80;1742231;80;20882;-54
2022/06/25 06:14:45;;;;;;;1.25;0.62;;;;;;;21.87;100.00;99556.81;1740094;80;20917;-54
2022/06/25 06:17:11;;;;;;;1.62;0.50;;;;;;;21.94;100.00;99558.47;1733748;80;20977;-54
2022/06/25 06:19:38;;;;;;;0.95;0.60;;;;;;;22.00;100.00;99548.30;1736367;80;21095;-53
2022/06/25 06:22:05;;;;;;;0.93;0.50;;;;;;;22.07;100.00;99550.28;1737542;80;21668;-54
2022/06/25 06:24:32;;;;;;;0.53;0.50;;;;;;;22.14;100.00;99549.16;1736492;80;21807;-54
2022/06/25 06:27:00;;;;;;;0.80;0.50;;;;;;;22.20;100.00;99552.14;1737940;80;21824;-54
2022/06/25 06:29:28;;;;;;;0.65;0.50;;;;;;;22.25;100.00;99547.09;1738435;80;21049;-54
2022/06/25 06:31:54;;;;;;;0.85;0.50;;;;;;;22.31;100.00;99555.70;1732463;80;21108;-54
2022/06/25 06:34:21;;;;;;;1.35;0.50;;;;;;;22.35;100.00;99548.41;1739917;80;21427;-54
2022/06/25 06:36:47;;;;;;;0.65;0.40;;;;;;;22.41;100.00;99554.63;1734989;80;21436;-54
2022/06/25 06:39:13;;;;;;;1.80;0.47;;;;;;;22.47;100.00;99554.01;1736502;80;21072;-54
2022/06/25 06:41:40;;;;;;;0.70;0.40;;;;;;;22.53;100.00;99547.93;1739416;80;21048;-54
2022/06/25 06:44:07;;;;;;;2.05;0.50;;;;;;;22.57;100.00;99568.53;1740429;80;21321;-54
2022/06/25 06:46:34;;;;;;;1.00;0.62;;;;;;;22.61;100.00;99554.88;1739897;80;21933;-54
2022/06/25 06:49:01;;;;;;;0.40;0.40;;;;;;;22.62;100.00;99550.25;1740022;80;20962;-54
2022/06/25 06:51:27;;;;;;;2.05;0.50;;;;;;;22.65;100.00;99563.64;1741674;80;20886;-54
2022/06/25 06:53:53;;;;;;;0.60;0.40;;;;;;;22.70;100.00;99558.56;1737554;80;21232;-54
2022/06/25 06:56:20;;;;;;;1.95;0.60;;;;;;;22.75;100.00;99559.48;1736630;80;21077;-54
2022/06/25 06:58:48;;;;;;;1.10;0.50;;;;;;;22.78;100.00;99561.93;1741318;80;21115;-54
2022/06/25 07:01:15;;;;;;;0.57;0.45;;;;;;;22.85;100.00;99561.14;1740805;80;21006;-54
2022/06/25 07:03:41;;;;;;;0.50;0.50;;;;;;;22.90;100.00;99558.78;1739447;80;20918;-55
2022/06/25 07:06:08;;;;;;;1.50;0.60;;;;;;;22.97;100.00;99557.63;1739468;80;20908;-54
2022/06/25 07:08:35;;;;;;;1.10;0.40;;;;;;;23.04;100.00;99563.38;1732385;80;20946;-55
2022/06/25 07:11:01;;;;;;;0.70;0.50;;;;;;;23.09;100.00;99578.34;1735864;80;21094;-55
2022/06/25 07:13:28;;;;;;;4.78;0.60;;;;;;;23.17;100.00;99572.93;1736726;80;20957;-55
2022/06/25 07:15:55;;;;;;;2.05;0.40;;;;;;;23.21;100.00;99563.37;1734281;80;20902;-54
2022/06/25 07:18:21;;;;;;;1.12;0.30;;;;;;;23.26;100.00;99560.13;1715479;80;21507;-54
2022/06/25 07:20:48;;;;;;;0.50;0.40;;;;;;;23.28;100.00;99561.70;1737149;80;21381;-55
2022/06/25 07:23:14;;;;;;;0.93;0.40;;;;;;;23.33;100.00;99570.31;1739529;80;21765;-55
2022/06/25 07:25:41;;;;;;;0.60;0.40;;;;;;;23.42;100.00;99560.77;1739850;80;20903;-56
2022/06/25 07:28:08;;;;;;;0.82;0.40;;;;;;;23.47;100.00;99566.15;1737759;80;21000;-55
2022/06/25 07:30:35;;;;;;;1.70;0.40;;;;;;;23.58;100.00;99567.78;1752971;80;20930;-56
2022/06/25 07:33:01;;;;;;;1.47;0.40;;;;;;;23.65;100.00;99572.47;1741557;80;20957;-56
2022/06/25 07:35:28;;;;;;;0.60;0.40;;;;;;;23.70;100.00;99564.62;1739349;80;21194;-56
2022/06/25 07:37:55;;;;;;;0.60;0.40;;;;;;;23.79;100.00;99569.66;1747381;80;21500;-55
2022/06/25 07:40:22;;;;;;;0.40;0.40;;;;;;;23.84;100.00;99560.39;1741387;80;21095;-56
2022/06/25 07:42:48;;;;;;;0.40;0.40;;;;;;;23.82;100.00;99561.06;1742663;80;21128;-57
2022/06/25 07:45:15;;;;;;;1.00;0.50;;;;;;;23.84;100.00;99560.91;1749431;80;21914;-57
2022/06/25 07:47:42;;;;;;;1.52;0.40;;;;;;;23.92;100.00;99556.83;1740902;80;21527;-58
2022/06/25 07:52:55;;;;;;;0.37;0.30;;;;;;;24.10;100.00;99552.11;1743257;80;21038;-56
2022/06/25 07:55:22;;;;;;;0.95;0.30;;;;;;;24.25;100.00;99560.63;1744344;80;21048;-56
2022/06/25 07:57:48;;;;;;;1.07;0.30;;;;;;;24.34;100.00;99565.13;1737441;80;21088;-55
2022/06/25 08:00:16;;;;;;;1.25;0.40;;;;;;;24.39;100.00;99563.62;1740733;80;21203;-55
2022/06/25 08:02:43;;;;;;;0.45;0.40;;;;;;;24.45;100.00;99566.21;1743932;80;21605;-55
2022/06/25 08:05:09;;;;;;;0.62;0.30;;;;;;;24.50;100.00;99566.56;1734680;81;21090;-55
2022/06/25 08:07:36;;;;;;;1.30;0.40;;;;;;;24.49;100.00;99562.97;1741672;80;21127;-54
2022/06/25 08:10:03;;;;;;;0.42;0.40;;;;;;;24.47;100.00;99563.65;1745165;81;21108;-55
2022/06/25 08:12:30;;;;;;;2.05;0.30;;;;;;;24.48;100.00;99564.00;1742672;80;21142;-56
2022/06/25 08:14:56;;;;;;;2.25;0.40;;;;;;;24.53;100.00;99566.23;1740568;80;21057;-55
2022/06/25 08:17:23;;;;;;;0.55;0.40;;;;;;;24.61;100.00;99569.52;1742998;80;21175;-55
2022/06/25 08:19:50;;;;;;;0.80;0.35;;;;;;;24.69;100.00;99563.52;1741219;80;21600;-54
2022/06/25 08:22:17;;;;;;;2.22;0.40;;;;;;;24.77;100.00;99564.05;1735808;80;21570;-54
2022/06/25 08:24:43;;;;;;;0.60;0.40;;;;;;;24.81;100.00;99566.31;1738982;80;20995;-55
2022/06/25 08:27:10;;;;;;;1.75;0.30;;;;;;;24.81;100.00;99564.08;1732421;80;21017;-55
2022/06/25 08:29:37;;;;;;;0.40;0.30;;;;;;;24.72;100.00;99563.20;1741910;80;21055;-55
2022/06/25 08:32:04;;;;;;;3.50;0.57;;;;;;;24.69;100.00;99556.64;1752265;80;21562;-56
2022/06/25 08:34:31;;;;;;;0.70;0.30;;;;;;;24.70;100.00;99562.50;1748446;80;21357;-55
2022/06/25 08:36:57;;;;;;;0.45;0.40;;;;;;;24.72;100.00;99569.22;1753264;80;23123;-55
2022/06/25 08:39:23;;;;;;;1.07;0.40;;;;;;;24.71;100.00;99561.98;1749841;80;21037;-56
2022/06/25 08:41:50;;;;;;;0.50;0.40;;;;;;;24.69;100.00;99566.28;1756869;80;21036;-55
2022/06/25 08:44:16;;;;;;;2.75;0.40;;;;;;;24.66;100.00;99561.64;1754007;80;21101;-56
2022/06/25 08:46:43;;;;;;;2.50;0.40;;;;;;;24.63;100.00;99561.97;1746970;80;21036;-56
2022/06/25 08:49:09;;;;;;;2.17;0.40;;;;;;;24.62;100.00;99562.48;1757467;80;21217;-55
2022/06/25 08:51:39;;;;;;;2.10;0.50;;;;;;;24.68;100.00;99555.43;1753270;80;21499;-55
2022/06/25 08:54:08;;;;;;;0.40;0.40;;;;;;;24.79;100.00;99552.37;1750476;80;21115;-55
2022/06/25 08:56:35;;;;;;;2.05;0.40;;;;;;;24.91;100.00;99560.69;1754579;80;21095;-55
2022/06/25 08:59:02;;;;;;;1.90;0.30;;;;;;;24.99;100.00;99561.21;1753670;80;21084;-55
2022/06/25 09:01:29;;;;;;;3.77;0.50;;;;;;;25.05;100.00;99560.52;1753350;80;21140;-57
2022/06/25 09:03:55;;;;;;;1.00;0.50;;;;;;;25.10;100.00;99559.48;1747564;80;21052;-55
2022/06/25 09:06:22;;;;;;;0.40;0.40;;;;;;;25.10;100.00;99555.35;1743973;80;21605;-55
2022/06/25 09:09:11;;;;;;;2.08;0.40;;;;;;;25.14;100.00;99558.13;1748756;80;21068;-55
2022/06/25 09:12:04;;;;;;;0.60;0.40;;;;;;;25.16;100.00;99554.17;1751218;80;21475;-55
2022/06/25 09:14:29;;;;;;;0.45;0.30;;;;;;;25.17;100.00;99563.30;1749820;80;21869;-55
2022/06/25 09:17:01;;;;;;;0.40;0.37;;;;;;;25.19;100.00;99563.96;1744827;80;21084;-56
2022/06/25 09:19:32;;;;;;;0.50;0.47;;;;;;;25.18;100.00;99560.34;1752111;80;21004;-56
2022/06/25 09:21:59;;;;;;;1.00;0.47;;;;;;;25.17;100.00;99559.17;1744420;80;21573;-56
2022/06/25 09:24:50;;;;;;;0.80;0.45;;;;;;;25.08;100.00;99558.30;1747077;80;21052;-56
2022/06/25 09:27:34;;;;;;;2.10;0.40;;;;;;;25.05;100.00;99561.39;1752279;80;21187;-56
2022/06/25 09:30:16;;;;;;;2.47;0.30;;;;;;;25.03;100.00;99562.06;1750062;80;21058;-56
2022/06/25 09:33:00;;;;;;;2.62;1.00;;;;;;;25.09;100.00;99555.89;1744504;80;21022;-57
2022/06/25 09:35:41;;;;;;;1.10;0.40;;;;;;;25.19;100.00;99554.32;1738222;80;21092;-55
2022/06/25 09:38:20;;;;;;;1.45;0.40;;;;;;;25.28;100.00;99557.42;1736884;80;21520;-56
2022/06/25 09:40:51;;;;;;;1.25;0.40;;;;;;;25.37;100.00;99555.53;1738873;80;21130;-56
2022/06/25 09:44:30;;;;;;;1.85;0.40;;;;;;;25.49;100.00;99553.64;1799077;78;23331;-56
2022/06/25 09:46:58;;;;;;;1.82;0.40;;;;;;;25.52;100.00;99551.06;1776202;79;20926;-57
2022/06/25 09:49:25;;;;;;;0.60;0.50;;;;;;;25.60;100.00;99549.16;1771713;79;22309;-54
2022/06/25 09:52:01;;;;;;;1.95;0.40;;;;;;;25.70;100.00;99549.48;1777795;79;20963;-57
2022/06/25 09:54:29;;;;;;;0.93;0.40;;;;;;;25.80;100.00;99552.40;1776186;79;20950;-56
2022/06/25 09:56:55;;;;;;;1.27;0.40;;;;;;;25.93;100.00;99559.63;1764856;79;21570;-57
2022/06/25 09:59:23;;;;;;;2.08;0.50;;;;;;;26.02;100.00;99564.59;1743661;80;22156;-56
2022/06/25 10:01:50;;;;;;;1.15;0.40;;;;;;;26.04;100.00;99564.39;1745955;81;22088;-57
2022/06/25 10:04:16;;;;;;;0.75;0.53;;;;;;;25.97;100.00;99560.97;1711841;81;20911;-57
2022/06/25 10:06:43;;;;;;;1.50;0.40;;;;;;;25.89;100.00;99562.89;1708302;82;20926;-56
2022/06/25 10:09:09;;;;;;;0.88;0.60;;;;;;;25.77;100.00;99558.80;1682410;84;20955;-55
2022/06/25 10:11:37;;;;;;;0.78;0.40;;;;;;;25.73;100.00;99557.41;1689759;82;20942;-55
2022/06/25 10:14:03;;;;;;;0.82;0.40;;;;;;;25.78;100.00;99557.73;1688467;84;21107;-55
2022/06/25 10:16:30;;;;;;;1.87;0.40;;;;;;;25.85;100.00;99554.64;1686994;84;20926;-56
2022/06/25 10:18:56;;;;;;;4.20;0.33;;;;;;;25.83;100.00;99557.57;1689317;84;21124;-56
2022/06/25 10:21:23;;;;;;;1.75;0.40;;;;;;;25.80;100.00;99549.64;1692577;84;20973;-56
2022/06/25 10:23:55;;;;;;;0.45;0.35;;;;;;;25.77;100.00;99554.66;1686297;84;20934;-55
2022/06/25 10:26:22;;;;;;;3.35;0.30;;;;;;;25.75;100.00;99556.73;1687256;84;21295;-55
2022/06/25 10:28:48;;;;;;;1.00;0.47;;;;;;;25.75;100.00;99549.84;1690311;84;21414;-56
2022/06/25 10:31:16;;;;;;;1.45;0.40;;;;;;;25.77;100.00;99546.39;1684710;84;20966;-56
2022/06/25 10:34:02;;;;;;;0.60;0.40;;;;;;;25.84;100.00;99555.67;1683978;84;21594;-56
2022/06/25 10:36:46;;;;;;;2.77;0.40;;;;;;;25.84;100.00;99554.30;1684067;84;21093;-57
2022/06/25 10:39:35;;;;;;;1.15;0.40;;;;;;;25.82;100.00;99558.61;1684337;84;21655;-55
2022/06/25 10:45:06;;;;;;;2.98;0.50;;;;;;;25.74;100.00;99554.48;1686339;82;21324;-56
2022/06/25 10:47:48;;;;;;;1.75;0.47;;;;;;;25.76;100.00;99544.67;1682570;82;21154;-57
2022/06/25 10:50:26;;;;;;;1.00;0.40;;;;;;;25.81;100.00;99543.61;1685987;82;21709;-56
2022/06/25 10:53:10;;;;;;;0.37;0.37;;;;;;;25.90;100.00;99546.69;1682644;82;21242;-57
2022/06/25 10:55:51;;;;;;;0.88;0.40;;;;;;;25.97;100.00;99541.67;1683057;82;21089;-54
2022/06/25 10:58:23;;;;;;;0.62;0.40;;;;;;;26.08;100.00;99541.81;1681771;82;21037;-56
2022/06/25 11:01:01;;;;;;;4.12;0.40;;;;;;;26.18;100.00;99537.47;1682817;84;21065;-56
2022/06/25 11:03:36;;;;;;;2.50;0.40;;;;;;;26.26;100.00;99541.60;1685628;82;21073;-55
2022/06/25 11:06:32;;;;;;;0.60;0.40;;;;;;;26.36;100.00;99540.35;1658264;82;21108;-56
2022/06/25 11:09:14;;;;;;;0.88;0.37;;;;;;;26.45;100.00;99543.93;1701982;81;20966;-56
2022/06/25 11:11:43;;;;;;;2.05;0.40;;;;;;;26.44;100.00;99552.38;1710771;81;21953;-57
2022/06/25 11:14:22;;;;;;;1.07;0.40;;;;;;;26.37;100.00;99552.22;1709017;81;21053;-56
2022/06/25 11:16:49;;;;;;;2.15;0.50;;;;;;;26.29;100.00;99547.60;1716285;81;21113;-55
2022/06/25 11:19:16;;;;;;;2.33;0.40;;;;;;;26.23;100.00;99548.81;1680966;83;22183;-57
2022/06/25 11:21:44;;;;;;;0.80;0.40;;;;;;;26.19;100.00;99551.09;1672159;83;21093;-55
2022/06/25 11:24:26;;;;;;;3.10;0.42;;;;;;;26.20;100.00;99545.05;1716135;81;21468;-55
2022/06/25 11:29:47;;;;;;;0.57;0.40;;;;;;;26.32;100.00;99550.02;1705393;81;21065;-56
2022/06/25 11:32:15;;;;;;;0.75;0.40;;;;;;;26.42;100.00;99541.52;1706369;81;21909;-57
2022/06/25 11:34:41;;;;;;;1.75;0.40;;;;;;;26.51;100.00;99554.23;1707434;81;21045;-56
2022/06/25 11:37:10;;;;;;;0.50;0.40;;;;;;;26.54;100.00;99544.75;1704379;81;21049;-57
2022/06/25 11:39:38;;;;;;;0.60;0.40;;;;;;;26.54;100.00;99551.65;1706437;81;20963;-56
2022/06/25 11:42:09;;;;;;;0.80;0.40;;;;;;;26.55;100.00;99546.44;1703317;81;22019;-56
2022/06/25 11:44:49;;;;;;;8.18;0.50;;;;;;;26.61;100.00;99544.36;1704131;83;21106;-57
2022/06/25 11:47:22;;;;;;;3.92;0.47;;;;;;;26.64;100.00;99543.45;1685876;83;21060;-57
2022/06/25 11:49:49;;;;;;;0.78;0.40;;;;;;;26.70;100.00;99546.89;1701693;82;21631;-55
2022/06/25 11:52:17;;;;;;;0.40;0.40;;;;;;;26.77;100.00;99547.53;1704784;82;22267;-56